CCA4580 ZHEC-RJTT
Flight info
| Callsign | CCA4580 |
|---|---|
| Flight time | N/A |
| Altitude | 37100 |
| Route | URGEB R343 HFE W163 VEMEX W545 ESBAG R343 PK G455 HSH W38 PINOT W115 MATNU G455 LAMEN/N0480F371 A593 SADLI Y590 BEDAR Y591 FUE V40 WOODY Y40 OOITA Y23 ARTIC Y71 XAC |
| Aircraft | A346/H-SDE2E3FGHIJ3J4J5M1RWXY/LB1D1 |
Departure
| Time | N/A |
|---|---|
| Airport | Ezhou Huahu International Airport (ZHEC) |
Arrival
| Time | 2026-05-07 07:40 |
|---|---|
| Airport | Tokyo Haneda International Airport (RJTT) |
| Time | Latitude | Longitude | Altitude | Speed | Heading |
|---|---|---|---|---|---|
| 2026-05-07 06:56 | 34.13197 | 135.06421 | 36945 ft | 538 kts | 72° |
| 2026-05-07 06:56 | 34.14172 | 135.10777 | 36939 ft | 538 kts | 72° |
| 2026-05-07 06:56 | 34.16103 | 135.19450 | 36932 ft | 538 kts | 72° |
| 2026-05-07 06:57 | 34.18042 | 135.28204 | 36924 ft | 538 kts | 72° |
| 2026-05-07 06:57 | 34.19960 | 135.36903 | 36923 ft | 538 kts | 72° |
| 2026-05-07 06:58 | 34.21886 | 135.45668 | 36923 ft | 537 kts | 72° |
| 2026-05-07 06:58 | 34.23784 | 135.54335 | 36924 ft | 537 kts | 72° |
| 2026-05-07 06:59 | 34.25692 | 135.63080 | 36925 ft | 537 kts | 72° |
| 2026-05-07 06:59 | 34.27594 | 135.71835 | 36922 ft | 537 kts | 73° |
| 2026-05-07 07:00 | 34.29480 | 135.80553 | 36924 ft | 537 kts | 73° |
| 2026-05-07 07:00 | 34.31363 | 135.89287 | 36925 ft | 538 kts | 73° |
| 2026-05-07 07:01 | 34.33239 | 135.98027 | 36925 ft | 537 kts | 73° |
| 2026-05-07 07:01 | 34.35114 | 136.06804 | 36924 ft | 537 kts | 73° |
| 2026-05-07 07:02 | 34.36972 | 136.15511 | 36925 ft | 538 kts | 73° |
| 2026-05-07 07:02 | 34.38842 | 136.24278 | 36925 ft | 537 kts | 73° |
| 2026-05-07 07:03 | 34.40686 | 136.32980 | 36925 ft | 537 kts | 73° |
| 2026-05-07 07:03 | 34.42543 | 136.41783 | 36924 ft | 538 kts | 73° |
| 2026-05-07 07:04 | 34.44372 | 136.50497 | 36924 ft | 537 kts | 73° |
| 2026-05-07 07:04 | 34.46214 | 136.59305 | 36925 ft | 538 kts | 73° |
| 2026-05-07 07:05 | 34.48040 | 136.68079 | 36921 ft | 537 kts | 73° |
| 2026-05-07 07:05 | 34.49854 | 136.76836 | 36924 ft | 538 kts | 73° |
| 2026-05-07 07:06 | 34.51666 | 136.85620 | 36925 ft | 538 kts | 73° |
| 2026-05-07 07:06 | 34.53216 | 136.94484 | 36925 ft | 539 kts | 79° |
| 2026-05-07 07:07 | 34.53968 | 137.03502 | 36926 ft | 540 kts | 86° |
| 2026-05-07 07:07 | 34.54076 | 137.12616 | 36925 ft | 541 kts | 88° |
| 2026-05-07 07:08 | 34.54101 | 137.21742 | 36924 ft | 541 kts | 88° |
| 2026-05-07 07:08 | 34.54144 | 137.30839 | 36925 ft | 541 kts | 88° |
| 2026-05-07 07:09 | 34.54193 | 137.39916 | 36927 ft | 541 kts | 88° |
| 2026-05-07 07:09 | 34.54237 | 137.49054 | 36934 ft | 541 kts | 88° |
| 2026-05-07 07:10 | 34.54271 | 137.58145 | 36942 ft | 541 kts | 88° |
| 2026-05-07 07:10 | 34.54289 | 137.62724 | 36837 ft | 538 kts | 88° |
| 2026-05-07 07:10 | 34.54307 | 137.67239 | 36581 ft | 529 kts | 88° |
| 2026-05-07 07:11 | 34.54322 | 137.71646 | 36294 ft | 522 kts | 88° |
| 2026-05-07 07:11 | 34.54333 | 137.76054 | 35925 ft | 519 kts | 88° |
| 2026-05-07 07:11 | 34.54343 | 137.80406 | 35379 ft | 519 kts | 88° |
| 2026-05-07 07:11 | 34.54350 | 137.84811 | 34752 ft | 520 kts | 88° |
| 2026-05-07 07:12 | 34.54356 | 137.89177 | 34110 ft | 521 kts | 88° |
| 2026-05-07 07:12 | 34.54358 | 137.93555 | 33459 ft | 522 kts | 88° |
| 2026-05-07 07:12 | 34.54358 | 137.97919 | 32824 ft | 523 kts | 88° |
| 2026-05-07 07:12 | 34.54358 | 138.02385 | 32174 ft | 523 kts | 88° |
| 2026-05-07 07:13 | 34.54357 | 138.06782 | 31529 ft | 523 kts | 89° |
| 2026-05-07 07:13 | 34.54352 | 138.11186 | 30884 ft | 523 kts | 89° |
| 2026-05-07 07:13 | 34.54345 | 138.15581 | 30216 ft | 524 kts | 89° |
| 2026-05-07 07:13 | 34.54332 | 138.19977 | 29534 ft | 524 kts | 89° |
| 2026-05-07 07:14 | 34.54317 | 138.24425 | 28844 ft | 524 kts | 89° |
| 2026-05-07 07:14 | 34.54301 | 138.28812 | 28157 ft | 524 kts | 89° |
| 2026-05-07 07:14 | 34.54304 | 138.33218 | 27620 ft | 519 kts | 86° |
| 2026-05-07 07:14 | 34.54704 | 138.37534 | 27202 ft | 510 kts | 77° |
| 2026-05-07 07:15 | 34.55630 | 138.41620 | 26778 ft | 501 kts | 67° |
| 2026-05-07 07:15 | 34.57026 | 138.45474 | 26390 ft | 494 kts | 60° |
| 2026-05-07 07:15 | 34.58575 | 138.49181 | 26141 ft | 495 kts | 59° |
| 2026-05-07 07:15 | 34.60168 | 138.52908 | 25890 ft | 494 kts | 59° |
| 2026-05-07 07:16 | 34.61726 | 138.56580 | 25642 ft | 492 kts | 59° |
| 2026-05-07 07:16 | 34.63286 | 138.60300 | 25390 ft | 490 kts | 60° |
| 2026-05-07 07:16 | 34.64817 | 138.63991 | 25141 ft | 488 kts | 60° |
| 2026-05-07 07:16 | 34.66366 | 138.67750 | 24883 ft | 486 kts | 61° |
| 2026-05-07 07:17 | 34.67875 | 138.71423 | 24633 ft | 485 kts | 61° |
| 2026-05-07 07:17 | 34.69384 | 138.75101 | 24382 ft | 483 kts | 62° |
| 2026-05-07 07:17 | 34.70665 | 138.78952 | 24125 ft | 484 kts | 70° |
| 2026-05-07 07:17 | 34.71429 | 138.82973 | 23873 ft | 484 kts | 80° |
| 2026-05-07 07:18 | 34.71674 | 138.87074 | 23625 ft | 483 kts | 88° |
| 2026-05-07 07:18 | 34.71653 | 138.91251 | 23371 ft | 481 kts | 90° |
| 2026-05-07 07:18 | 34.71581 | 138.95328 | 23121 ft | 479 kts | 90° |
| 2026-05-07 07:18 | 34.71526 | 138.99425 | 22865 ft | 477 kts | 90° |
| 2026-05-07 07:19 | 34.71498 | 139.03503 | 22602 ft | 475 kts | 90° |
| 2026-05-07 07:19 | 34.71482 | 139.07575 | 22264 ft | 473 kts | 91° |
| 2026-05-07 07:19 | 34.71466 | 139.11670 | 21807 ft | 470 kts | 91° |
| 2026-05-07 07:19 | 34.71447 | 139.15640 | 21300 ft | 467 kts | 92° |
| 2026-05-07 07:20 | 34.71424 | 139.19646 | 20774 ft | 463 kts | 92° |
| 2026-05-07 07:20 | 34.71396 | 139.23602 | 20299 ft | 458 kts | 92° |
| 2026-05-07 07:20 | 34.71364 | 139.27472 | 19852 ft | 453 kts | 92° |
| 2026-05-07 07:20 | 34.71333 | 139.31297 | 19405 ft | 448 kts | 92° |
| 2026-05-07 07:21 | 34.71303 | 139.35118 | 18957 ft | 443 kts | 92° |
| 2026-05-07 07:21 | 34.71394 | 139.38863 | 18502 ft | 440 kts | 85° |
| 2026-05-07 07:21 | 34.71789 | 139.41371 | 18197 ft | 439 kts | 76° |
| 2026-05-07 07:21 | 34.73370 | 139.45953 | 17604 ft | 435 kts | 61° |
| 2026-05-07 07:22 | 34.74923 | 139.49153 | 17167 ft | 431 kts | 59° |
| 2026-05-07 07:22 | 34.76482 | 139.52249 | 16735 ft | 427 kts | 59° |
| 2026-05-07 07:22 | 34.78046 | 139.55366 | 16300 ft | 423 kts | 59° |
| 2026-05-07 07:22 | 34.79587 | 139.58473 | 15866 ft | 419 kts | 60° |
| 2026-05-07 07:23 | 34.81096 | 139.61545 | 15435 ft | 416 kts | 60° |
| 2026-05-07 07:23 | 34.82579 | 139.64581 | 15009 ft | 412 kts | 60° |
| 2026-05-07 07:23 | 34.84069 | 139.67644 | 14575 ft | 409 kts | 60° |
| 2026-05-07 07:23 | 34.85527 | 139.70650 | 14147 ft | 405 kts | 60° |
| 2026-05-07 07:24 | 34.86971 | 139.73630 | 13719 ft | 402 kts | 61° |
| 2026-05-07 07:24 | 34.88398 | 139.76576 | 13294 ft | 399 kts | 60° |
| 2026-05-07 07:24 | 34.89808 | 139.79494 | 12870 ft | 395 kts | 60° |
| 2026-05-07 07:24 | 34.91226 | 139.82428 | 12451 ft | 392 kts | 60° |
| 2026-05-07 07:25 | 34.94803 | 139.87321 | 11575 ft | 386 kts | 26° |
| 2026-05-07 07:25 | 34.97393 | 139.88266 | 11150 ft | 379 kts | 4° |
| 2026-05-07 07:25 | 34.99999 | 139.88008 | 10794 ft | 369 kts | 344° |
| 2026-05-07 07:26 | 35.02461 | 139.87199 | 10708 ft | 354 kts | 343° |
| 2026-05-07 07:26 | 35.04817 | 139.86408 | 10607 ft | 340 kts | 343° |
| 2026-05-07 07:26 | 35.07065 | 139.85664 | 10499 ft | 327 kts | 343° |
| 2026-05-07 07:26 | 35.09275 | 139.84947 | 10388 ft | 315 kts | 343° |
| 2026-05-07 07:27 | 35.11395 | 139.84268 | 10286 ft | 303 kts | 343° |
| 2026-05-07 07:27 | 35.13412 | 139.83627 | 10187 ft | 291 kts | 343° |
| 2026-05-07 07:27 | 35.15344 | 139.83014 | 10098 ft | 281 kts | 343° |
| 2026-05-07 07:27 | 35.17235 | 139.82414 | 10010 ft | 275 kts | 343° |
| 2026-05-07 07:28 | 35.19122 | 139.81815 | 9701 ft | 276 kts | 343° |
| 2026-05-07 07:28 | 35.20993 | 139.81218 | 9364 ft | 276 kts | 343° |
| 2026-05-07 07:28 | 35.22891 | 139.80615 | 9042 ft | 275 kts | 343° |
| 2026-05-07 07:28 | 35.24770 | 139.80019 | 8732 ft | 274 kts | 343° |
| 2026-05-07 07:29 | 35.26644 | 139.79423 | 8426 ft | 273 kts | 343° |
| 2026-05-07 07:29 | 35.28493 | 139.78834 | 8124 ft | 272 kts | 343° |
| 2026-05-07 07:29 | 35.30365 | 139.78302 | 7805 ft | 273 kts | 353° |
| 2026-05-07 07:29 | 35.32262 | 139.78621 | 7462 ft | 278 kts | 22° |
| 2026-05-07 07:30 | 35.33912 | 139.79942 | 7172 ft | 277 kts | 38° |
| 2026-05-07 07:30 | 35.35406 | 139.81456 | 6884 ft | 276 kts | 39° |
| 2026-05-07 07:30 | 35.36904 | 139.82993 | 6587 ft | 276 kts | 39° |
| 2026-05-07 07:30 | 35.38403 | 139.84511 | 6293 ft | 275 kts | 39° |
| 2026-05-07 07:31 | 35.39919 | 139.86026 | 6048 ft | 271 kts | 38° |
| 2026-05-07 07:31 | 35.41367 | 139.87463 | 5984 ft | 259 kts | 38° |
| 2026-05-07 07:31 | 35.42763 | 139.88847 | 5919 ft | 249 kts | 38° |
| 2026-05-07 07:31 | 35.44086 | 139.90234 | 5840 ft | 245 kts | 43° |
| 2026-05-07 07:32 | 35.45324 | 139.91713 | 5575 ft | 247 kts | 45° |
| 2026-05-07 07:32 | 35.46578 | 139.93251 | 5284 ft | 248 kts | 45° |
| 2026-05-07 07:32 | 35.47811 | 139.94765 | 5010 ft | 248 kts | 45° |
| 2026-05-07 07:32 | 35.49049 | 139.96284 | 4741 ft | 248 kts | 45° |
| 2026-05-07 07:33 | 35.50289 | 139.97803 | 4473 ft | 248 kts | 45° |
| 2026-05-07 07:33 | 35.51524 | 139.99312 | 4231 ft | 242 kts | 45° |
| 2026-05-07 07:33 | 35.52729 | 140.00766 | 3916 ft | 235 kts | 41° |
| 2026-05-07 07:33 | 35.54202 | 140.01562 | 3555 ft | 227 kts | 2° |
| 2026-05-07 07:34 | 35.55652 | 140.01071 | 3384 ft | 207 kts | 323° |
| 2026-05-07 07:34 | 35.56545 | 139.99835 | 3298 ft | 184 kts | 298° |
| 2026-05-07 07:34 | 35.57054 | 139.98467 | 3213 ft | 169 kts | 278° |
| 2026-05-07 07:34 | 35.57108 | 139.97014 | 3094 ft | 164 kts | 263° |
| 2026-05-07 07:35 | 35.57015 | 139.95605 | 2954 ft | 162 kts | 262° |
| 2026-05-07 07:35 | 35.56917 | 139.94220 | 2788 ft | 162 kts | 262° |
| 2026-05-07 07:35 | 35.56828 | 139.92810 | 2625 ft | 162 kts | 262° |
| 2026-05-07 07:35 | 35.56748 | 139.91403 | 2470 ft | 161 kts | 263° |
| 2026-05-07 07:36 | 35.56674 | 139.90007 | 2307 ft | 162 kts | 262° |
| 2026-05-07 07:36 | 35.56601 | 139.88603 | 2148 ft | 162 kts | 263° |
| 2026-05-07 07:36 | 35.56532 | 139.87213 | 2020 ft | 161 kts | 263° |
| 2026-05-07 07:36 | 35.56463 | 139.85812 | 1960 ft | 161 kts | 262° |
| 2026-05-07 07:37 | 35.56386 | 139.84424 | 1891 ft | 159 kts | 265° |
| 2026-05-07 07:37 | 35.56641 | 139.83086 | 1731 ft | 162 kts | 301° |
| 2026-05-07 07:37 | 35.57537 | 139.82187 | 1532 ft | 167 kts | 326° |
| 2026-05-07 07:37 | 35.58546 | 139.81479 | 1323 ft | 166 kts | 326° |
| 2026-05-07 07:38 | 35.59550 | 139.80708 | 1096 ft | 165 kts | 324° |
| 2026-05-07 07:38 | 35.60522 | 139.79941 | 914 ft | 165 kts | 325° |
| 2026-05-07 07:38 | 35.61409 | 139.79034 | 851 ft | 161 kts | 300° |
| 2026-05-07 07:38 | 35.61585 | 139.77739 | 850 ft | 151 kts | 245° |
| 2026-05-07 07:39 | 35.60881 | 139.76865 | 903 ft | 146 kts | 194° |
| 2026-05-07 07:39 | 35.59846 | 139.76817 | 839 ft | 146 kts | 173° |
| 2026-05-07 07:39 | 35.58853 | 139.77177 | 645 ft | 146 kts | 162° |
| 2026-05-07 07:39 | 35.57909 | 139.77693 | 459 ft | 146 kts | 154° |
| 2026-05-07 07:40 | 35.57034 | 139.78326 | 217 ft | 145 kts | 151° |
| 2026-05-07 07:40 | 35.56163 | 139.78966 | 55 ft | 134 kts | 154° |
| 2026-05-07 07:40 | 35.55492 | 139.79417 | 53 ft | 83 kts | 150° |
| 2026-05-07 07:40 | 35.55144 | 139.79669 | 53 ft | 34 kts | 150° |
| 2026-05-07 07:41 | 35.54916 | 139.79752 | 53 ft | 32 kts | 179° |
| 2026-05-07 07:41 | 35.54744 | 139.79730 | 53 ft | 13 kts | 213° |
| 2026-05-07 07:41 | 35.54691 | 139.79619 | 53 ft | 16 kts | 243° |
| 2026-05-07 07:41 | 35.54633 | 139.79489 | 53 ft | 17 kts | 240° |
| 2026-05-07 07:42 | 35.54565 | 139.79347 | 53 ft | 19 kts | 239° |
| 2026-05-07 07:42 | 35.54491 | 139.79196 | 53 ft | 21 kts | 240° |
| 2026-05-07 07:42 | 35.54414 | 139.79025 | 53 ft | 23 kts | 240° |
| 2026-05-07 07:42 | 35.54328 | 139.78844 | 53 ft | 24 kts | 238° |
| 2026-05-07 07:43 | 35.54236 | 139.78653 | 53 ft | 26 kts | 240° |
| 2026-05-07 07:43 | 35.54138 | 139.78447 | 53 ft | 28 kts | 239° |
| 2026-05-07 07:43 | 35.54033 | 139.78229 | 53 ft | 27 kts | 239° |
| 2026-05-07 07:43 | 35.53951 | 139.78046 | 53 ft | 18 kts | 256° |
| 2026-05-07 07:44 | 35.54013 | 139.77936 | 53 ft | 17 kts | 329° |
| 2026-05-07 07:44 | 35.54102 | 139.77872 | 53 ft | 14 kts | 330° |
| 2026-05-07 07:44 | 35.54195 | 139.77806 | 53 ft | 16 kts | 330° |
| 2026-05-07 07:44 | 35.54298 | 139.77733 | 53 ft | 17 kts | 330° |
| 2026-05-07 07:45 | 35.54410 | 139.77653 | 53 ft | 18 kts | 330° |
| 2026-05-07 07:45 | 35.54516 | 139.77577 | 53 ft | 17 kts | 329° |
| 2026-05-07 07:45 | 35.54626 | 139.77496 | 53 ft | 18 kts | 329° |
| 2026-05-07 07:45 | 35.54742 | 139.77416 | 53 ft | 17 kts | 330° |
| 2026-05-07 07:46 | 35.54813 | 139.77353 | 53 ft | 12 kts | 302° |
| 2026-05-07 07:46 | 35.54800 | 139.77245 | 53 ft | 14 kts | 242° |
| 2026-05-07 07:46 | 35.54750 | 139.77135 | 53 ft | 13 kts | 237° |
| 2026-05-07 07:46 | 35.54679 | 139.77057 | 53 ft | 12 kts | 232° |
| 2026-05-07 07:47 | 35.54649 | 139.77000 | 53 ft | 5 kts | 239° |
| 2026-05-07 07:47 | 35.54642 | 139.76985 | 53 ft | 0 kts | 240° |